createdAt,value
2024-05-09T00:08:51.801Z,80
2024-05-09T00:18:52.032Z,81
2024-05-09T00:28:52.200Z,81
2024-05-09T00:38:52.384Z,81
2024-05-09T00:48:52.628Z,82
2024-05-09T01:08:52.986Z,82
2024-05-09T01:18:53.266Z,82
2024-05-09T01:28:53.393Z,83
2024-05-09T01:38:53.615Z,83
2024-05-09T01:48:53.823Z,83
2024-05-09T01:58:53.987Z,82
2024-05-09T02:08:54.184Z,82
2024-05-09T02:18:54.464Z,83
2024-05-09T02:28:54.641Z,83
2024-05-09T02:38:54.781Z,83
2024-05-09T02:48:55.054Z,83
2024-05-09T02:58:55.204Z,83
2024-05-09T03:08:55.414Z,84
2024-05-09T03:18:55.614Z,84
2024-05-09T03:28:55.781Z,84
2024-05-09T03:38:56.025Z,84
2024-05-09T03:58:56.391Z,84
2024-05-09T04:08:56.566Z,84
2024-05-09T04:18:56.856Z,85
2024-05-09T04:28:57.030Z,85
2024-05-09T04:38:57.193Z,85
2024-05-09T04:48:57.510Z,85
2024-05-09T05:18:58.035Z,85
2024-05-09T05:28:58.214Z,85
2024-05-09T05:38:58.424Z,86
2024-05-09T05:48:58.774Z,85
2024-05-09T05:58:58.792Z,85
2024-05-09T06:08:58.998Z,85
2024-05-09T06:18:59.260Z,85
2024-05-09T06:28:59.396Z,85
2024-05-09T06:38:59.608Z,85
2024-05-09T06:48:59.904Z,85
2024-05-09T06:59:00.067Z,85
2024-05-09T07:09:00.168Z,84
2024-05-09T07:19:00.513Z,83
2024-05-09T07:29:00.621Z,83
2024-05-09T07:39:00.753Z,82
2024-05-09T07:49:59.987Z,80
2024-05-09T07:59:01.130Z,79
2024-05-09T08:09:05.086Z,78
2024-05-09T08:19:01.589Z,77
2024-05-09T08:29:01.714Z,76
2024-05-09T08:39:01.925Z,74
2024-05-09T08:49:02.461Z,72
2024-05-09T08:59:02.291Z,71
2024-05-09T09:09:02.495Z,69
2024-05-09T09:19:02.867Z,68
2024-05-09T09:29:02.880Z,66
2024-05-09T09:39:03.083Z,65
2024-05-09T09:49:03.322Z,64
2024-05-09T09:59:03.467Z,63
2024-05-09T10:09:03.670Z,61
2024-05-09T10:19:04.041Z,61
2024-05-09T10:29:04.037Z,60
2024-05-09T10:49:06.350Z,59
2024-05-09T10:59:04.631Z,58
2024-05-09T11:09:04.804Z,57
2024-05-09T11:19:05.092Z,56
2024-05-09T11:29:05.200Z,55
2024-05-09T11:39:05.392Z,55
2024-05-09T11:59:05.833Z,57
2024-05-09T12:09:05.970Z,58
2024-05-09T12:19:06.236Z,56
2024-05-09T12:29:06.352Z,54
2024-05-09T12:39:06.585Z,53
2024-05-09T12:49:06.987Z,52
2024-05-09T12:59:06.932Z,51
2024-05-09T13:09:07.176Z,51
2024-05-09T13:19:07.385Z,50
2024-05-09T13:29:07.515Z,50
2024-05-09T13:39:07.697Z,50
2024-05-09T13:49:10.079Z,49
2024-05-09T13:59:08.098Z,50
2024-05-09T14:09:08.303Z,51
2024-05-09T14:19:08.499Z,52
2024-05-09T14:29:08.668Z,51
2024-05-09T14:39:08.862Z,51
2024-05-09T14:49:11.751Z,51
2024-05-09T14:59:09.246Z,51
2024-05-09T15:09:09.440Z,52
2024-05-09T15:19:09.783Z,51
2024-05-09T15:29:09.832Z,50
2024-05-09T15:39:10.013Z,51
2024-05-09T15:59:10.407Z,52
2024-05-09T16:19:10.861Z,52
2024-05-09T16:39:11.161Z,51
2024-05-09T16:59:11.550Z,53
2024-05-09T18:39:13.479Z,57
2024-05-09T19:59:15.088Z,65
2024-05-09T20:09:15.242Z,66
2024-05-09T20:19:15.467Z,67
2024-05-09T20:29:15.652Z,68
2024-05-09T20:39:15.816Z,68
2024-05-09T20:49:16.139Z,69
2024-05-09T20:59:16.205Z,69
2024-05-09T21:09:16.418Z,70
2024-05-09T21:19:16.667Z,70
2024-05-09T21:29:16.795Z,71
2024-05-09T21:39:16.993Z,71
2024-05-09T21:49:17.216Z,72
2024-05-09T21:59:17.413Z,73
2024-05-09T22:09:17.582Z,73
2024-05-09T22:19:17.821Z,74
2024-05-09T22:29:17.990Z,75
2024-05-09T22:49:18.542Z,75
2024-05-09T22:59:18.651Z,75
2024-05-09T23:09:18.798Z,76
2024-05-09T23:19:18.989Z,76
2024-05-09T23:29:19.218Z,77
2024-05-09T23:39:19.363Z,77
2024-05-09T23:49:19.568Z,78
2024-05-09T23:59:19.757Z,78
